Terminal Aerodrome Forecast
Issued by NWS Jackson, KY

Home | Current Version | Previous Version | Text Only | Print | Product List | Glossary On
Versions: 1 2 3 4 5 6 7 8 9 10 11 12 13 14 15 16 17 18 19 20 21 22 23 24
418
FTUS43 KJKL 250233 AAA
TAFLOZ
TAF AMD
KLOZ 250233Z 2503/2524 18009KT P6SM SCT200
     FM250400 19010G20KT 5SM -TSRA BKN050CB
     FM250700 21009KT 3SM SHRA VCTS OVC070CB
     FM250800 26009KT 3SM SHRA OVC030
     FM251200 26009KT P6SM OVC060=

USA.gov is the U.S. government's official web portal to all federal, state and local government web resources and services.